Time;durP1;ratioP1;P1;durP2;ratioP2;P2;SDS_P1;SDS_P2;PMS_P1;PMS_P2;Temp;Humidity;BMP_temperature;BMP_pressure;BME280_temperature;BME280_humidity;BME280_pressure;Samples;Min_cycle;Max_cycle;Signal;HPM_P1;HPM_P2
2022/08/15 00:00:52;;;;;;;4.82;3.72;;;;;;;16.28;100.00;92386.94;2106190;28;20027;-69
2022/08/15 00:01:53;;;;;;;7.75;3.92;;;;;;;16.30;100.00;92386.50;2106028;28;20416;-70
2022/08/15 00:02:57;;;;;;;4.88;3.60;;;;;;;16.32;100.00;92392.91;2106204;28;20020;-70
2022/08/15 00:04:00;;;;;;;6.22;3.83;;;;;;;16.23;100.00;92395.72;2101358;28;20024;-73
2022/08/15 00:05:03;;;;;;;7.82;3.97;;;;;;;16.33;100.00;92393.63;2088914;28;20020;-71
2022/08/15 00:06:07;;;;;;;5.78;3.67;;;;;;;16.30;100.00;92389.94;2089643;28;20519;-68
2022/08/15 00:07:09;;;;;;;5.05;3.72;;;;;;;16.34;100.00;92395.88;2106248;28;20032;-68
2022/08/15 00:08:10;;;;;;;5.60;3.92;;;;;;;16.39;100.00;92397.16;2106171;28;20078;-69
2022/08/15 00:09:18;;;;;;;4.22;3.45;;;;;;;16.41;100.00;92391.28;2102818;28;20024;-69
2022/08/15 00:10:19;;;;;;;4.35;3.72;;;;;;;16.28;100.00;92389.66;2106377;28;20034;-69
2022/08/15 00:11:31;;;;;;;4.93;3.80;;;;;;;16.27;100.00;92382.78;2106395;28;20024;-69
2022/08/15 00:12:34;;;;;;;5.55;3.65;;;;;;;16.33;100.00;92389.00;2099867;28;20449;-70
2022/08/15 00:13:37;;;;;;;5.35;3.30;;;;;;;16.39;100.00;92378.28;2106206;28;20042;-69
2022/08/15 00:14:39;;;;;;;7.38;4.10;;;;;;;16.40;100.00;92368.97;2103929;28;20059;-70
2022/08/15 00:15:40;;;;;;;6.45;4.10;;;;;;;16.54;100.00;92367.44;2097036;28;20035;-68
2022/08/15 00:16:44;;;;;;;3.65;3.28;;;;;;;16.52;100.00;92370.59;2097240;28;20024;-69
2022/08/15 00:17:48;;;;;;;4.97;3.80;;;;;;;16.54;100.00;92365.47;2106195;28;20028;-70
2022/08/15 00:18:49;;;;;;;7.47;3.45;;;;;;;16.56;100.00;92360.34;2106073;28;20020;-71
2022/08/15 00:19:50;;;;;;;6.05;3.28;;;;;;;16.57;100.00;92369.94;2102386;28;20029;-69
2022/08/15 00:20:52;;;;;;;5.97;3.40;;;;;;;16.50;100.00;92367.63;2105657;28;20452;-70
2022/08/15 00:21:58;;;;;;;5.78;3.20;;;;;;;16.50;100.00;92364.19;2105869;28;20050;-69
2022/08/15 00:22:59;;;;;;;7.30;3.58;;;;;;;16.45;100.00;92357.50;2098830;28;20422;-69
2022/08/15 00:24:00;;;;;;;5.88;3.50;;;;;;;16.45;100.00;92362.91;2106047;28;20035;-69
2022/08/15 00:25:02;;;;;;;5.55;3.72;;;;;;;16.45;100.00;92360.22;2105913;28;20065;-69
2022/08/15 00:26:03;;;;;;;4.15;3.60;;;;;;;16.34;100.00;92360.81;2103319;28;20106;-69
2022/08/15 00:27:08;;;;;;;6.18;3.38;;;;;;;16.39;100.00;92351.31;2106113;28;20133;-69
2022/08/15 00:28:08;;;;;;;5.53;3.60;;;;;;;16.36;100.00;92354.94;2106040;28;20068;-69
2022/08/15 00:29:09;;;;;;;6.32;3.97;;;;;;;16.33;100.00;92364.72;2105964;28;20109;-70
2022/08/15 00:30:12;;;;;;;5.95;4.15;;;;;;;16.31;100.00;92348.25;2105867;28;20365;-68
2022/08/15 00:31:13;;;;;;;9.80;4.15;;;;;;;16.25;100.00;92352.84;2101172;28;20040;-69
2022/08/15 00:32:19;;;;;;;8.68;4.10;;;;;;;16.23;100.00;92343.75;2105996;28;20044;-70
2022/08/15 00:33:21;;;;;;;4.10;3.67;;;;;;;16.21;100.00;92343.47;2106059;28;20028;-70
2022/08/15 00:34:22;;;;;;;5.35;3.63;;;;;;;16.25;100.00;92344.03;2105926;28;20020;-70
2022/08/15 00:35:36;;;;;;;6.25;3.67;;;;;;;16.31;100.00;92344.81;2105811;28;20043;-70
2022/08/15 00:36:37;;;;;;;4.03;3.50;;;;;;;16.21;100.00;92343.47;2103441;28;20027;-71
2022/08/15 00:37:38;;;;;;;5.20;3.60;;;;;;;16.21;100.00;92343.47;2105903;28;20067;-71
2022/08/15 00:38:39;;;;;;;6.78;3.92;;;;;;;16.21;100.00;92343.47;2106033;28;20032;-69
2022/08/15 00:39:40;;;;;;;7.57;3.85;;;;;;;16.15;100.00;92350.72;2105968;28;20145;-70
2022/08/15 00:42:09;;;;;;;7.30;3.70;;;;;;;16.07;100.00;92351.16;2097110;28;20024;-69
2022/08/15 00:43:10;;;;;;;4.45;3.88;;;;;;;16.20;100.00;92353.53;2106025;28;20451;-71
2022/08/15 00:44:14;;;;;;;6.32;3.90;;;;;;;16.15;100.00;92351.47;2105961;28;20023;-69
2022/08/15 00:45:15;;;;;;;5.65;3.33;;;;;;;16.12;100.00;92349.72;2105879;28;20031;-69
2022/08/15 00:46:16;;;;;;;5.60;3.72;;;;;;;16.11;100.00;92350.91;2105926;28;20043;-69
2022/08/15 00:47:21;;;;;;;5.15;3.55;;;;;;;16.16;100.00;92346.84;2092695;28;20388;-69
2022/08/15 00:49:43;;;;;;;5.50;3.55;;;;;;;16.12;100.00;92355.13;2102103;28;20395;-70
2022/08/15 00:50:44;;;;;;;7.65;3.75;;;;;;;16.13;100.00;92359.31;2105753;28;20109;-68
2022/08/15 00:51:52;;;;;;;7.20;3.90;;;;;;;15.95;100.00;92348.75;2105835;28;20042;-69
2022/08/15 00:52:53;;;;;;;3.83;3.33;;;;;;;15.96;100.00;92350.22;2103217;28;20043;-69
2022/08/15 00:54:05;;;;;;;5.10;3.45;;;;;;;15.98;100.00;92350.50;2105757;28;20119;-71
2022/08/15 00:55:12;;;;;;;7.75;3.92;;;;;;;16.02;100.00;92351.03;2099405;28;20028;-71
2022/08/15 00:56:14;;;;;;;3.80;3.40;;;;;;;16.02;100.00;92349.13;2105756;28;20532;-69
2022/08/15 00:57:29;;;;;;;11.68;3.90;;;;;;;15.93;100.00;92346.50;2105627;28;20127;-72
2022/08/15 00:58:30;;;;;;;4.43;3.22;;;;;;;16.24;100.00;92351.38;2094493;28;20035;-69
2022/08/15 00:59:37;;;;;;;4.60;3.58;;;;;;;16.19;100.00;92345.88;2105835;28;20025;-69
2022/08/15 01:00:44;;;;;;;5.68;3.80;;;;;;;16.06;100.00;92343.50;2105702;28;20040;-68
2022/08/15 01:01:45;;;;;;;8.82;3.70;;;;;;;16.04;100.00;92337.84;2096692;28;20343;-70
2022/08/15 01:02:48;;;;;;;8.30;4.35;;;;;;;15.91;100.00;92340.13;2097046;28;20032;-68
2022/08/15 01:03:50;;;;;;;4.93;3.60;;;;;;;15.79;100.00;92336.50;2102953;28;20020;-69
2022/08/15 01:04:51;;;;;;;5.63;3.90;;;;;;;15.81;100.00;92339.50;2105091;28;20047;-69
2022/08/15 01:05:59;;;;;;;6.93;3.80;;;;;;;15.72;100.00;92345.72;2105682;28;20023;-69
2022/08/15 01:07:00;;;;;;;5.90;4.00;;;;;;;15.68;100.00;92347.13;2098640;28;20030;-68
2022/08/15 01:08:02;;;;;;;5.53;3.78;;;;;;;15.73;100.00;92343.78;2105682;28;20491;-68
2022/08/15 01:09:08;;;;;;;6.45;4.40;;;;;;;15.77;100.00;92349.72;2103675;28;20047;-71
2022/08/15 01:10:10;;;;;;;7.05;3.90;;;;;;;15.77;100.00;92344.34;2105737;28;20365;-68
2022/08/15 01:11:14;;;;;;;7.18;3.60;;;;;;;15.79;100.00;92344.59;2105715;28;20036;-69
2022/08/15 01:12:19;;;;;;;4.35;3.50;;;;;;;15.72;100.00;92348.44;2105685;28;20690;-70
2022/08/15 01:13:20;;;;;;;4.00;3.60;;;;;;;15.64;100.00;92352.72;2105686;28;20053;-69
2022/08/15 01:14:23;;;;;;;7.70;3.60;;;;;;;15.75;100.00;92362.91;2101577;28;20584;-70
2022/08/15 01:15:24;;;;;;;5.40;4.18;;;;;;;15.84;100.00;92360.09;2105526;28;20027;-70
2022/08/15 01:16:28;;;;;;;5.65;3.47;;;;;;;15.85;100.00;92364.31;2105680;28;20035;-68
2022/08/15 01:17:31;;;;;;;6.70;3.90;;;;;;;15.77;100.00;92369.31;2098528;28;20481;-70
2022/08/15 01:18:32;;;;;;;6.50;3.60;;;;;;;15.76;100.00;92373.22;2105619;28;20485;-68
2022/08/15 01:19:45;;;;;;;7.55;4.03;;;;;;;15.85;100.00;92373.13;2101443;28;20519;-69
2022/08/15 01:20:48;;;;;;;4.75;3.92;;;;;;;15.91;100.00;92367.81;2105651;28;20038;-69
2022/08/15 01:22:13;;;;;;;6.05;3.95;;;;;;;15.93;100.00;92373.47;2105474;28;20027;-69
2022/08/15 01:23:32;;;;;;;6.25;4.10;;;;;;;15.89;100.00;92366.78;2102369;28;20084;-69
2022/08/15 01:24:42;;;;;;;5.40;3.80;;;;;;;15.76;100.00;92367.06;2097442;28;20028;-69
2022/08/15 01:25:42;;;;;;;;;;;;;;;15.81;100.00;92366.44;2104401;28;20071;-68
2022/08/15 01:26:45;;;;;;;5.00;3.63;;;;;;;15.75;100.00;92371.00;2105575;28;19913;-69
2022/08/15 01:28:08;;;;;;;6.82;3.75;;;;;;;15.74;100.00;92362.16;2105556;28;20036;-69
2022/08/15 01:29:10;;;;;;;4.95;4.03;;;;;;;15.74;100.00;92364.13;2087006;28;20113;-69
2022/08/15 01:30:17;;;;;;;6.10;3.42;;;;;;;15.93;100.00;92367.34;2101936;28;20447;-68
2022/08/15 01:31:21;;;;;;;5.10;3.95;;;;;;;15.84;100.00;92362.78;2105408;28;20019;-69
2022/08/15 01:32:22;;;;;;;6.75;3.60;;;;;;;15.78;100.00;92362.72;2105482;28;20024;-69
2022/08/15 01:33:25;;;;;;;5.25;3.50;;;;;;;15.74;100.00;92370.25;2105590;28;20039;-69
2022/08/15 01:34:26;;;;;;;6.20;3.65;;;;;;;15.92;100.00;92377.38;2097251;28;20027;-68
2022/08/15 01:35:28;;;;;;;7.50;3.75;;;;;;;16.04;100.00;92376.34;2103604;28;20042;-69
2022/08/15 01:36:31;;;;;;;5.00;3.38;;;;;;;16.07;100.00;92380.81;2105455;28;20039;-69
2022/08/15 01:37:32;;;;;;;9.07;3.63;;;;;;;15.97;100.00;92384.81;2105418;28;20038;-69
2022/08/15 01:38:41;;;;;;;5.32;3.78;;;;;;;15.88;100.00;92382.22;2096421;28;20021;-69
2022/08/15 01:40:10;;;;;;;4.80;3.65;;;;;;;15.76;100.00;92383.25;2097677;28;20050;-70
2022/08/15 01:41:11;;;;;;;4.90;3.60;;;;;;;15.66;100.00;92385.31;2097085;28;20077;-72
2022/08/15 01:42:21;;;;;;;4.82;3.55;;;;;;;15.69;100.00;92387.06;2105386;28;20036;-69
2022/08/15 01:43:26;;;;;;;8.40;3.75;;;;;;;15.69;100.00;92380.94;2105391;28;20036;-68
2022/08/15 01:44:35;;;;;;;7.22;3.20;;;;;;;15.66;100.00;92384.56;2097394;28;20040;-71
2022/08/15 01:45:41;;;;;;;9.10;3.63;;;;;;;15.65;100.00;92375.00;2105324;28;20106;-69
2022/08/15 01:46:52;;;;;;;4.85;3.88;;;;;;;15.67;100.00;92380.66;2101797;28;20026;-69
2022/08/15 01:47:59;;;;;;;4.25;3.58;;;;;;;15.70;100.00;92371.66;2105447;28;20020;-67
2022/08/15 01:49:08;;;;;;;3.83;3.42;;;;;;;15.79;100.00;92374.22;2098449;28;20420;-69
2022/08/15 01:50:14;;;;;;;6.20;3.85;;;;;;;15.67;100.00;92378.72;2087947;28;20036;-69
2022/08/15 01:51:16;;;;;;;6.85;3.83;;;;;;;15.57;100.00;92380.00;2087195;28;20050;-69
2022/08/15 01:52:20;;;;;;;3.80;3.22;;;;;;;15.55;100.00;92380.47;2103110;28;20039;-70
2022/08/15 01:53:26;;;;;;;6.32;3.50;;;;;;;15.57;100.00;92388.81;2105372;28;20057;-69
2022/08/15 01:54:32;;;;;;;6.47;3.55;;;;;;;15.59;100.00;92378.31;2097409;28;20034;-69
2022/08/15 01:55:42;;;;;;;4.47;3.55;;;;;;;15.50;100.00;92381.13;2105290;28;20036;-70
2022/08/15 01:56:45;;;;;;;3.85;3.35;;;;;;;15.54;100.00;92386.28;2101666;28;20048;-71
2022/08/15 01:57:46;;;;;;;4.30;3.22;;;;;;;15.60;100.00;92379.81;2105330;28;20067;-68
2022/08/15 01:58:47;;;;;;;4.68;3.65;;;;;;;15.53;100.00;92374.03;2105364;28;20095;-69
2022/08/15 01:59:58;;;;;;;4.05;3.40;;;;;;;15.49;100.00;92373.47;2105305;28;20043;-69
2022/08/15 02:01:08;;;;;;;4.43;3.45;;;;;;;15.50;100.00;92373.03;2097989;28;20054;-68
2022/08/15 02:02:11;;;;;;;5.75;3.72;;;;;;;15.49;100.00;92390.38;2103296;28;20036;-69
2022/08/15 02:03:12;;;;;;;4.47;3.70;;;;;;;15.49;100.00;92371.53;2105346;28;20375;-69
2022/08/15 02:04:17;;;;;;;5.40;3.60;;;;;;;15.43;100.00;92378.78;2105239;28;20450;-68
2022/08/15 02:05:18;;;;;;;4.18;3.55;;;;;;;15.51;100.00;92371.81;2105239;28;20032;-69
2022/08/15 02:06:24;;;;;;;5.47;3.10;;;;;;;15.57;100.00;92369.94;2104889;28;20020;-69
2022/08/15 02:07:28;;;;;;;5.30;3.65;;;;;;;15.53;100.00;92363.25;2100876;28;20031;-69
2022/08/15 02:08:29;;;;;;;5.32;3.08;;;;;;;15.68;100.00;92366.00;2097835;28;20024;-68
2022/08/15 02:09:31;;;;;;;4.00;2.63;;;;;;;15.51;100.00;92363.00;2105324;28;20849;-69
2022/08/15 02:10:31;;;;;;;3.25;2.40;;;;;;;15.56;100.00;92359.66;2105171;28;20056;-69
2022/08/15 02:11:32;;;;;;;4.07;2.50;;;;;;;15.55;100.00;92364.31;2105153;28;20016;-69
2022/08/15 02:12:37;;;;;;;4.80;2.85;;;;;;;15.59;100.00;92358.72;2102489;28;20040;-69
2022/08/15 02:14:57;;;;;;;;;;;;;;;15.43;100.00;92351.84;2142970;27;20547;-70
2022/08/15 02:16:00;;;;;;;3.92;2.80;;;;;;;15.40;100.00;92350.09;2142505;27;19917;-68
2022/08/15 02:17:03;;;;;;;4.63;2.67;;;;;;;15.40;100.00;92349.34;2140959;27;20026;-67
2022/08/15 02:18:04;;;;;;;3.60;2.70;;;;;;;15.46;100.00;92359.00;2142500;27;20026;-67
2022/08/15 02:19:07;;;;;;;3.22;2.30;;;;;;;15.45;100.00;92351.38;2142479;27;20559;-67
2022/08/15 02:20:11;;;;;;;2.80;2.50;;;;;;;15.42;100.00;92357.72;2142492;27;20434;-67
2022/08/15 02:21:11;;;;;;;3.40;2.53;;;;;;;15.49;100.00;92360.75;2142606;27;20034;-69
2022/08/15 02:22:13;;;;;;;2.40;2.20;;;;;;;15.67;100.00;92357.16;2132448;27;20090;-68
2022/08/15 02:23:14;;;;;;;4.80;2.78;;;;;;;15.50;100.00;92356.13;2133334;27;20423;-68
2022/08/15 02:24:19;;;;;;;2.58;2.13;;;;;;;15.66;100.00;92352.97;2142531;27;20037;-67
2022/08/15 02:25:20;;;;;;;5.40;2.50;;;;;;;15.76;100.00;92356.28;2142472;27;20030;-67
2022/08/15 02:26:22;;;;;;;6.07;2.15;;;;;;;15.52;100.00;92351.75;2142429;27;20426;-69
2022/08/15 02:27:25;;;;;;;3.33;2.53;;;;;;;15.47;100.00;92352.41;2142371;27;20030;-69
2022/08/15 02:28:26;;;;;;;4.90;2.40;;;;;;;15.59;100.00;92354.09;2138565;27;20372;-67
2022/08/15 02:29:28;;;;;;;2.97;2.50;;;;;;;15.49;100.00;92347.28;2132981;27;20076;-68
2022/08/15 02:30:31;;;;;;;2.85;2.50;;;;;;;15.51;100.00;92350.28;2133242;27;20110;-67
2022/08/15 02:31:33;;;;;;;4.22;2.35;;;;;;;15.46;100.00;92352.88;2142284;27;20034;-67
2022/08/15 02:32:36;;;;;;;4.43;2.42;;;;;;;15.35;100.00;92358.81;2142350;27;20089;-69
2022/08/15 02:33:38;;;;;;;3.95;2.85;;;;;;;15.40;100.00;92357.41;2141532;27;20471;-68
2022/08/15 02:34:41;;;;;;;4.32;2.60;;;;;;;15.33;100.00;92361.25;2132958;27;20538;-69
2022/08/15 02:35:42;;;;;;;3.97;2.83;;;;;;;15.40;100.00;92352.78;2133356;27;20026;-68
2022/08/15 02:36:44;;;;;;;5.38;2.50;;;;;;;15.39;100.00;92355.94;2142360;27;20041;-67
2022/08/15 02:37:46;;;;;;;4.43;2.95;;;;;;;15.34;100.00;92360.78;2133252;27;20035;-70
2022/08/15 02:38:49;;;;;;;3.92;2.72;;;;;;;15.33;100.00;92350.47;2132431;27;20467;-70
2022/08/15 02:39:51;;;;;;;4.90;2.67;;;;;;;15.32;100.00;92357.03;2142308;27;20386;-68
2022/08/15 02:40:52;;;;;;;3.45;2.40;;;;;;;15.27;100.00;92355.00;2142408;27;20026;-70
2022/08/15 02:41:53;;;;;;;3.35;3.03;;;;;;;15.21;100.00;92354.91;2142273;27;20018;-68
2022/08/15 02:42:55;;;;;;;3.05;2.28;;;;;;;15.26;100.00;92348.13;2142286;27;20050;-69
2022/08/15 02:43:56;;;;;;;3.47;2.38;;;;;;;15.23;100.00;92349.81;2137985;27;20022;-68
2022/08/15 02:44:57;;;;;;;3.33;2.40;;;;;;;15.29;100.00;92347.22;2137515;27;20026;-67
2022/08/15 02:46:00;;;;;;;4.97;2.60;;;;;;;15.28;100.00;92348.44;2142275;27;20053;-68
2022/08/15 02:47:01;;;;;;;4.13;2.50;;;;;;;15.37;100.00;92345.66;2142238;27;20106;-69
2022/08/15 02:48:03;;;;;;;4.40;2.53;;;;;;;15.42;100.00;92345.00;2142349;27;20037;-69
2022/08/15 02:49:11;;;;;;;3.58;2.75;;;;;;;15.41;100.00;92346.19;2142263;27;20065;-68
2022/08/15 02:50:15;;;;;;;6.35;2.70;;;;;;;15.31;100.00;92348.22;2141470;27;20467;-67
2022/08/15 02:51:18;;;;;;;3.10;2.65;;;;;;;15.29;100.00;92344.53;2142267;27;20034;-68
2022/08/15 02:52:19;;;;;;;12.43;3.22;;;;;;;15.28;100.00;92348.44;2142275;27;20049;-70
2022/08/15 02:53:20;;;;;;;3.50;2.50;;;;;;;15.64;100.00;92346.56;2142269;27;20916;-67
2022/08/15 02:54:26;;;;;;;3.05;2.40;;;;;;;15.52;100.00;92345.63;2142134;27;20022;-68
2022/08/15 02:55:27;;;;;;;4.10;2.90;;;;;;;15.37;100.00;92334.88;2138612;27;20030;-67
2022/08/15 02:56:28;;;;;;;4.97;2.70;;;;;;;15.36;100.00;92341.44;2142169;27;20026;-68
2022/08/15 02:57:32;;;;;;;4.25;2.53;;;;;;;15.32;100.00;92341.66;2142116;27;20341;-68
2022/08/15 02:58:36;;;;;;;5.18;3.00;;;;;;;15.46;100.00;92336.72;2142252;27;20022;-68
2022/08/15 02:59:37;;;;;;;4.53;3.08;;;;;;;15.39;100.00;92337.81;2143953;27;20516;-67
2022/08/15 03:00:41;;;;;;;5.57;2.90;;;;;;;15.39;100.00;92343.22;2141450;27;20014;-67
2022/08/15 03:01:42;;;;;;;4.40;2.90;;;;;;;15.40;100.00;92333.91;2142158;27;20026;-67
2022/08/15 03:02:51;;;;;;;3.72;2.60;;;;;;;15.43;100.00;92330.31;2142122;27;20037;-68
2022/08/15 03:03:53;;;;;;;3.58;2.42;;;;;;;15.31;100.00;92334.75;2142649;27;20034;-68
2022/08/15 03:04:54;;;;;;;6.70;2.63;;;;;;;15.33;100.00;92337.75;2142122;27;20053;-69
2022/08/15 03:05:57;;;;;;;5.25;2.67;;;;;;;15.32;100.00;92336.28;2142039;27;20041;-69
2022/08/15 03:06:58;;;;;;;2.85;2.42;;;;;;;15.28;100.00;92334.97;2138159;27;20025;-68
2022/08/15 03:07:59;;;;;;;3.15;2.72;;;;;;;15.24;100.00;92332.47;2142103;27;20033;-67
2022/08/15 03:09:06;;;;;;;5.18;2.65;;;;;;;15.23;100.00;92330.22;2142064;27;20030;-69
2022/08/15 03:10:07;;;;;;;3.35;2.67;;;;;;;15.14;100.00;92330.31;2143805;27;20049;-70
2022/08/15 03:11:09;;;;;;;3.50;2.30;;;;;;;15.11;100.00;92340.81;2143272;27;20033;-70
2022/08/15 03:12:14;;;;;;;2.60;2.40;;;;;;;15.06;100.00;92328.00;2142193;27;20033;-68
2022/08/15 03:13:16;;;;;;;4.22;2.78;;;;;;;14.94;100.00;92336.34;2142118;27;20042;-68
2022/08/15 03:14:20;;;;;;;4.80;2.80;;;;;;;14.91;100.00;92334.56;2140582;27;20068;-69
2022/08/15 03:15:24;;;;;;;5.82;2.97;;;;;;;14.95;100.00;92332.44;2141999;27;20064;-68
2022/08/15 03:16:26;;;;;;;5.53;2.65;;;;;;;14.83;100.00;92337.59;2141206;27;20569;-69
2022/08/15 03:17:27;;;;;;;3.38;2.75;;;;;;;14.80;100.00;92327.03;2129574;27;20138;-68
2022/08/15 03:18:30;;;;;;;4.75;2.65;;;;;;;14.76;100.00;92329.91;2141993;27;20030;-70
2022/08/15 03:19:31;;;;;;;6.70;2.67;;;;;;;14.67;100.00;92329.25;2142072;27;20054;-68
2022/08/15 03:20:32;;;;;;;2.75;2.50;;;;;;;14.73;100.00;92330.06;2141012;27;20023;-68
2022/08/15 03:21:35;;;;;;;3.95;2.85;;;;;;;14.68;100.00;92326.06;2141292;27;20068;-68
2022/08/15 03:22:41;;;;;;;5.65;2.72;;;;;;;14.59;100.00;92326.16;2142080;27;20025;-69
2022/08/15 03:23:50;;;;;;;4.20;2.90;;;;;;;14.56;100.00;92319.75;2141949;27;20033;-67
2022/08/15 03:24:50;;;;;;;4.95;2.80;;;;;;;14.58;100.00;92321.97;2142029;27;20097;-69
2022/08/15 03:25:58;;;;;;;4.57;2.80;;;;;;;14.61;100.00;92321.03;2138749;27;20512;-69
2022/08/15 03:26:59;;;;;;;5.18;2.63;;;;;;;14.49;100.00;92322.06;2128105;27;20022;-68
2022/08/15 03:28:00;;;;;;;4.72;2.75;;;;;;;14.64;100.00;92330.16;2136085;27;20041;-68
2022/08/15 03:29:03;;;;;;;4.75;2.85;;;;;;;14.73;100.00;92327.38;2136191;27;20022;-68
2022/08/15 03:30:07;;;;;;;3.55;2.90;;;;;;;14.70;100.00;92325.59;2136178;27;20023;-70
2022/08/15 03:31:09;;;;;;;4.88;2.83;;;;;;;14.65;100.00;92320.88;2134504;27;20050;-69
2022/08/15 03:32:12;;;;;;;3.88;2.65;;;;;;;14.57;100.00;92333.94;2135857;27;20030;-68
2022/08/15 03:33:14;;;;;;;3.70;2.60;;;;;;;14.50;100.00;92332.34;2134396;27;20030;-68
2022/08/15 03:34:18;;;;;;;4.57;2.88;;;;;;;14.48;100.00;92340.13;2136050;27;20038;-67
2022/08/15 03:35:21;;;;;;;7.53;2.70;;;;;;;14.47;100.00;92337.88;2135214;27;20094;-70
2022/08/15 03:36:23;;;;;;;3.55;3.03;;;;;;;14.46;100.00;92337.13;2136069;27;20022;-68
2022/08/15 03:37:24;;;;;;;4.65;2.67;;;;;;;14.47;100.00;92338.59;2135196;27;20464;-68
2022/08/15 03:38:26;;;;;;;5.03;2.65;;;;;;;14.40;100.00;92341.66;2135974;27;20029;-69
2022/08/15 03:39:27;;;;;;;2.70;2.50;;;;;;;14.52;100.00;92342.63;2131933;27;20026;-68
2022/08/15 03:40:28;;;;;;;7.07;2.90;;;;;;;14.49;100.00;92338.19;2136007;27;20053;-68
2022/08/15 03:41:29;;;;;;;5.88;2.97;;;;;;;14.44;100.00;92350.28;2126860;27;20049;-71
2022/08/15 03:42:31;;;;;;;5.60;3.10;;;;;;;14.41;100.00;92342.41;2126902;27;20512;-67
2022/08/15 03:43:32;;;;;;;4.20;2.80;;;;;;;14.36;100.00;92343.78;2132903;27;20027;-67
2022/08/15 03:44:33;;;;;;;3.40;2.65;;;;;;;14.29;100.00;92350.22;2136022;27;20030;-68
2022/08/15 03:45:33;;;;;;;4.20;2.60;;;;;;;14.27;100.00;92346.53;2136077;27;20037;-69
2022/08/15 03:46:34;;;;;;;6.20;2.72;;;;;;;14.29;100.00;92347.53;2136039;27;20022;-68
2022/08/15 03:47:36;;;;;;;3.58;2.95;;;;;;;14.25;100.00;92354.28;2136089;27;20022;-68
2022/08/15 03:48:47;;;;;;;3.30;2.65;;;;;;;14.28;100.00;92353.38;2135156;27;20050;-70
2022/08/15 03:49:48;;;;;;;5.80;2.88;;;;;;;14.21;100.00;92353.72;2126709;27;20019;-70
2022/08/15 03:50:51;;;;;;;3.58;3.08;;;;;;;14.17;100.00;92353.13;2126990;27;20015;-71
2022/08/15 03:51:53;;;;;;;4.68;3.00;;;;;;;14.13;100.00;92363.31;2135975;27;20030;-70
2022/08/15 03:52:58;;;;;;;5.18;2.38;;;;;;;14.19;100.00;92356.88;2136373;27;20470;-68
2022/08/15 03:53:59;;;;;;;4.47;2.92;;;;;;;14.16;100.00;92360.47;2131494;27;20105;-69
2022/08/15 03:55:04;;;;;;;4.07;2.63;;;;;;;14.23;100.00;92367.44;2135897;27;20036;-68
2022/08/15 03:56:06;;;;;;;4.80;2.67;;;;;;;14.33;100.00;92364.25;2135959;27;20034;-66
2022/08/15 03:57:07;;;;;;;6.15;3.45;;;;;;;14.27;100.00;92368.78;2136089;27;20478;-68
2022/08/15 03:58:10;;;;;;;9.30;3.20;;;;;;;14.19;100.00;92370.31;2136069;27;20018;-68
2022/08/15 03:59:11;;;;;;;4.40;2.85;;;;;;;14.23;100.00;92370.13;2134841;27;20564;-68
2022/08/15 04:00:15;;;;;;;5.20;3.25;;;;;;;14.17;100.00;92364.63;2133967;27;20026;-67
2022/08/15 04:01:20;;;;;;;6.97;2.90;;;;;;;14.18;100.00;92371.50;2135999;27;20026;-68
2022/08/15 04:02:24;;;;;;;4.10;3.03;;;;;;;14.20;100.00;92368.34;2135940;27;20126;-68
2022/08/15 04:03:29;;;;;;;5.85;2.83;;;;;;;14.18;100.00;92368.06;2126639;27;20027;-70
2022/08/15 04:04:29;;;;;;;3.30;2.95;;;;;;;14.08;100.00;92375.44;2122418;27;20034;-68
2022/08/15 04:05:31;;;;;;;6.00;2.78;;;;;;;14.15;100.00;92371.69;2135893;27;20106;-68
2022/08/15 04:06:32;;;;;;;5.32;2.78;;;;;;;14.23;100.00;92364.75;2135939;27;20483;-70
2022/08/15 04:07:35;;;;;;;3.17;2.35;;;;;;;14.66;100.00;92371.50;2135778;27;20033;-69
2022/08/15 04:08:37;;;;;;;5.07;3.22;;;;;;;14.60;100.00;92374.09;2135889;27;20025;-67
2022/08/15 04:09:39;;;;;;;6.55;2.83;;;;;;;14.49;100.00;92381.22;2134100;27;20026;-68
2022/08/15 04:10:40;;;;;;;6.82;3.05;;;;;;;14.40;100.00;92390.06;2135842;27;20026;-68
2022/08/15 04:11:41;;;;;;;5.25;3.17;;;;;;;14.36;100.00;92387.53;2126637;27;20026;-68
2022/08/15 04:12:44;;;;;;;6.35;2.83;;;;;;;14.32;100.00;92389.66;2126713;27;20448;-66
2022/08/15 04:13:46;;;;;;;6.20;2.67;;;;;;;14.41;100.00;92393.47;2135766;27;20576;-68
2022/08/15 04:14:47;;;;;;;4.30;2.70;;;;;;;14.39;100.00;92393.91;2134629;27;20121;-66
2022/08/15 04:15:48;;;;;;;8.18;3.05;;;;;;;14.45;100.00;92394.81;2134740;27;20058;-68
2022/08/15 04:16:49;;;;;;;4.22;2.92;;;;;;;14.55;100.00;92392.81;2135756;27;20027;-69
2022/08/15 04:17:52;;;;;;;2.88;2.40;;;;;;;14.78;100.00;92394.00;2135862;27;20057;-68
2022/08/15 04:18:53;;;;;;;5.43;2.78;;;;;;;14.70;100.00;92395.56;2135820;27;20097;-69
2022/08/15 04:19:54;;;;;;;3.15;2.70;;;;;;;14.91;100.00;92402.56;2135759;27;20077;-66
2022/08/15 04:20:58;;;;;;;4.88;2.90;;;;;;;14.88;100.00;92398.09;2135046;27;20022;-69
2022/08/15 04:22:03;;;;;;;6.30;2.88;;;;;;;14.77;100.00;92393.25;2131874;27;20045;-68
2022/08/15 04:23:05;;;;;;;3.85;2.78;;;;;;;14.70;100.00;92400.94;2126582;27;20018;-67
2022/08/15 04:24:06;;;;;;;3.47;2.70;;;;;;;14.66;100.00;92390.34;2126589;27;20110;-68
2022/08/15 04:25:20;;;;;;;8.05;3.15;;;;;;;14.62;100.00;92389.78;2135498;27;20041;-68
2022/08/15 04:26:21;;;;;;;4.50;2.95;;;;;;;14.54;100.00;92394.03;2138599;27;20026;-67
2022/08/15 04:27:22;;;;;;;3.88;2.60;;;;;;;14.69;100.00;92391.38;2135801;27;20022;-69
2022/08/15 04:28:25;;;;;;;3.03;2.72;;;;;;;14.68;100.00;92393.34;2135648;27;20369;-68
2022/08/15 04:29:26;;;;;;;6.20;2.95;;;;;;;14.59;100.00;92394.13;2131419;27;20022;-68
2022/08/15 04:30:29;;;;;;;3.83;2.85;;;;;;;14.53;100.00;92398.66;2134225;27;20113;-68
2022/08/15 04:31:30;;;;;;;11.20;3.47;;;;;;;14.49;100.00;92383.91;2135756;27;20046;-71
2022/08/15 04:32:31;;;;;;;6.25;3.58;;;;;;;14.46;100.00;92387.47;2135696;27;20410;-70
2022/08/15 04:33:33;;;;;;;7.60;3.25;;;;;;;14.43;100.00;92378.38;2135654;27;20019;-70
2022/08/15 04:34:38;;;;;;;5.15;2.80;;;;;;;14.42;100.00;92376.16;2135603;27;20072;-68
2022/08/15 04:35:42;;;;;;;4.05;2.80;;;;;;;14.41;100.00;92372.72;2133873;27;20095;-69
2022/08/15 04:36:46;;;;;;;4.43;2.90;;;;;;;14.42;100.00;92371.50;2135628;27;20051;-71
2022/08/15 04:37:47;;;;;;;8.27;3.10;;;;;;;14.66;100.00;92374.19;2134731;27;20057;-70
2022/08/15 04:38:50;;;;;;;4.43;2.70;;;;;;;14.56;100.00;92373.53;2135474;27;20119;-68
2022/08/15 04:39:53;;;;;;;2.97;2.70;;;;;;;14.70;100.00;92372.06;2135759;27;20030;-67
2022/08/15 04:40:54;;;;;;;4.95;2.65;;;;;;;14.69;100.00;92377.94;2134605;27;20026;-69
2022/08/15 04:41:55;;;;;;;4.85;2.53;;;;;;;14.63;100.00;92366.31;2135612;27;20452;-68
2022/08/15 04:42:59;;;;;;;5.97;3.05;;;;;;;14.61;100.00;92370.19;2131418;27;20466;-68
2022/08/15 04:44:02;;;;;;;2.80;2.53;;;;;;;14.56;100.00;92364.72;2135691;27;20352;-70
2022/08/15 04:45:03;;;;;;;5.20;3.20;;;;;;;14.51;100.00;92368.78;2135431;27;20026;-69
2022/08/15 04:46:05;;;;;;;4.72;2.88;;;;;;;14.45;100.00;92365.22;2134767;27;20026;-68
2022/08/15 04:47:06;;;;;;;3.95;2.78;;;;;;;14.44;100.00;92363.72;2135626;27;20022;-68
2022/08/15 04:48:09;;;;;;;4.43;3.15;;;;;;;14.31;100.00;92363.19;2135445;27;20360;-68
2022/08/15 04:49:10;;;;;;;4.35;2.95;;;;;;;14.29;100.00;92363.66;2135390;27;20037;-68
2022/08/15 04:50:11;;;;;;;5.60;3.03;;;;;;;14.20;100.00;92362.97;2135437;27;20046;-68
2022/08/15 04:51:12;;;;;;;8.27;2.85;;;;;;;14.23;100.00;92362.06;2134622;27;20026;-68
2022/08/15 04:52:16;;;;;;;5.03;3.17;;;;;;;14.24;100.00;92368.94;2135542;27;20031;-68
2022/08/15 04:53:24;;;;;;;3.42;3.00;;;;;;;14.12;100.00;92357.19;2135495;27;20037;-70
2022/08/15 04:54:26;;;;;;;5.78;2.80;;;;;;;14.01;100.00;92365.03;2130625;27;20030;-70
2022/08/15 04:55:28;;;;;;;3.47;2.92;;;;;;;14.07;100.00;92358.56;2131440;27;20025;-69
2022/08/15 04:56:29;;;;;;;5.30;2.85;;;;;;;14.10;100.00;92362.28;2135350;27;20551;-69
2022/08/15 04:57:30;;;;;;;4.43;2.90;;;;;;;14.06;100.00;92357.09;2133978;27;20075;-68
2022/08/15 04:58:31;;;;;;;6.50;2.70;;;;;;;14.01;100.00;92365.78;2131139;27;20060;-68
2022/08/15 04:59:32;;;;;;;6.28;2.80;;;;;;;14.00;100.00;92361.56;2135935;27;20038;-68